Time;durP1;ratioP1;P1;durP2;ratioP2;P2;SDS_P1;SDS_P2;PMS_P1;PMS_P2;Temp;Humidity;BMP_temperature;BMP_pressure;BME280_temperature;BME280_humidity;BME280_pressure;Samples;Min_cycle;Max_cycle;Signal;HPM_P1;HPM_P2
2022/07/02 00:00:02;;;;;;;6.75;2.90;;;;;;;19.96;82.28;98804.06;4364294;32;20097;-72
2022/07/02 00:02:41;;;;;;;4.32;2.87;;;;;;;19.89;82.56;98824.47;4364205;32;20086;-73
2022/07/02 00:05:12;;;;;;;5.30;2.92;;;;;;;19.88;82.58;98814.88;4364425;32;20449;-73
2022/07/02 00:07:39;;;;;;;6.65;3.85;;;;;;;19.90;82.68;98809.38;4364239;32;20078;-73
2022/07/02 00:10:07;;;;;;;12.10;3.45;;;;;;;19.87;82.88;98799.13;4364175;32;20087;-73
2022/07/02 00:12:34;;;;;;;3.45;2.53;;;;;;;19.83;82.99;98819.94;4363877;32;20099;-72
2022/07/02 00:15:02;;;;;;;2.78;2.58;;;;;;;19.77;83.46;98820.72;4364277;32;20091;-72
2022/07/02 00:17:30;;;;;;;3.58;2.72;;;;;;;19.77;84.01;98789.69;4350843;32;20107;-73
2022/07/02 00:19:57;;;;;;;6.07;2.70;;;;;;;19.76;84.53;98787.19;4364013;32;20165;-72
2022/07/02 00:22:27;;;;;;;3.97;2.65;;;;;;;19.80;84.29;98791.09;4364058;32;20630;-73
2022/07/02 00:24:54;;;;;;;5.65;4.50;;;;;;;19.81;84.36;98782.13;4364030;32;20092;-73
2022/07/02 00:27:22;;;;;;;5.78;3.00;;;;;;;19.87;83.86;98783.19;4350733;32;20103;-73
2022/07/02 00:29:57;;;;;;;5.70;3.28;;;;;;;19.99;83.33;98789.56;4350663;32;20150;-73
2022/07/02 00:32:28;;;;;;;5.05;3.15;;;;;;;19.87;84.01;98799.94;4362888;32;20071;-73
2022/07/02 00:34:57;;;;;;;4.45;2.78;;;;;;;19.92;82.86;98802.00;4364197;32;20091;-73
2022/07/02 00:37:25;;;;;;;6.62;3.12;;;;;;;19.88;82.93;98814.88;4363958;32;20091;-73
2022/07/02 00:39:53;;;;;;;3.62;2.83;;;;;;;19.83;82.97;98827.94;4363795;32;20551;-73
2022/07/02 00:42:21;;;;;;;4.85;3.97;;;;;;;19.73;83.65;98819.44;4363786;32;20087;-72
2022/07/02 00:44:49;;;;;;;6.97;3.40;;;;;;;19.79;83.66;98818.72;4350373;32;20130;-73
2022/07/02 00:47:16;;;;;;;6.90;2.87;;;;;;;19.69;83.93;98825.16;4364075;32;20095;-72
2022/07/02 00:49:44;;;;;;;4.30;2.70;;;;;;;19.69;83.49;98829.66;4363754;32;20086;-73
2022/07/02 00:52:11;;;;;;;3.30;2.45;;;;;;;19.65;83.28;98801.81;4350215;32;20075;-73
2022/07/02 00:54:38;;;;;;;3.50;2.62;;;;;;;19.74;82.15;98802.50;4363650;32;20122;-72
2022/07/02 00:57:06;;;;;;;5.05;3.40;;;;;;;19.76;81.52;98803.94;4363653;32;20100;-72
2022/07/02 00:59:34;;;;;;;3.00;2.53;;;;;;;19.79;81.14;98808.91;4361041;32;80110;-73
2022/07/02 01:02:01;;;;;;;3.15;2.37;;;;;;;19.75;81.91;98812.94;4363623;32;20425;-72
2022/07/02 01:04:31;;;;;;;4.22;3.00;;;;;;;19.68;82.77;98818.22;4363486;32;20099;-73
2022/07/02 01:07:04;;;;;;;4.00;2.30;;;;;;;19.59;83.41;98830.00;4363378;32;20087;-72
2022/07/02 01:12:34;;;;;;;2.58;2.15;;;;;;;19.44;82.72;98847.88;4363213;32;20491;-71
2022/07/02 01:15:01;;;;;;;5.10;1.95;;;;;;;19.36;82.83;98851.50;4363444;32;20091;-72
2022/07/02 01:17:28;;;;;;;2.28;1.40;;;;;;;19.12;83.46;98858.88;4363519;32;20130;-72
2022/07/02 01:19:55;;;;;;;7.00;1.37;;;;;;;18.87;84.39;98839.81;4363233;32;20137;-72
2022/07/02 01:22:24;;;;;;;1.75;1.20;;;;;;;18.59;85.29;98829.06;4363124;32;20091;-72
2022/07/02 01:24:54;;;;;;;1.73;1.10;;;;;;;18.41;85.72;98848.91;4363188;32;20157;-72
2022/07/02 01:27:23;;;;;;;1.05;0.90;;;;;;;18.22;86.23;98870.69;4363262;32;20104;-71
2022/07/02 01:29:50;;;;;;;6.78;1.25;;;;;;;18.06;86.80;98842.50;4363218;32;20083;-71
2022/07/02 01:32:18;;;;;;;2.35;1.10;;;;;;;17.87;87.34;98844.69;4357049;32;20414;-71
2022/07/02 01:34:51;;;;;;;3.05;1.00;;;;;;;17.69;88.04;98855.63;4349705;32;20123;-71
2022/07/02 01:37:21;;;;;;;1.60;1.30;;;;;;;17.51;88.82;98865.75;4363179;32;20091;-71
2022/07/02 01:39:48;;;;;;;2.60;1.30;;;;;;;17.50;88.83;98886.13;4363003;32;20100;-71
2022/07/02 01:42:16;;;;;;;5.55;1.08;;;;;;;17.37;89.20;98857.59;4363073;32;20145;-71
2022/07/02 01:44:44;;;;;;;1.83;1.37;;;;;;;17.34;89.13;98843.88;4364693;32;20103;-71
2022/07/02 01:47:12;;;;;;;2.58;1.62;;;;;;;17.23;89.59;98825.75;4365205;32;20178;-71
2022/07/02 01:49:40;;;;;;;3.58;1.77;;;;;;;17.17;89.56;98828.13;4365144;32;20107;-71
2022/07/02 01:52:08;;;;;;;2.20;1.52;;;;;;;17.11;89.95;98820.06;4364959;32;20121;-71
2022/07/02 01:54:35;;;;;;;4.85;1.50;;;;;;;16.99;90.66;98804.63;4365029;32;20541;-71
2022/07/02 01:57:04;;;;;;;2.12;1.52;;;;;;;16.93;91.00;98796.56;4365425;32;20098;-71
2022/07/02 01:59:32;;;;;;;10.57;1.67;;;;;;;16.88;91.18;98812.16;4365353;32;20083;-71
2022/07/02 02:01:59;;;;;;;2.00;1.45;;;;;;;16.77;91.96;98787.72;4365064;32;20079;-71
2022/07/02 02:04:27;;;;;;;3.50;1.98;;;;;;;16.82;91.90;98803.06;4364939;32;20142;-71
2022/07/02 02:06:54;;;;;;;4.78;1.20;;;;;;;16.71;92.29;98783.13;4365097;32;20186;-71
2022/07/02 02:09:21;;;;;;;2.75;1.75;;;;;;;16.76;91.97;98783.44;4364963;32;20547;-71
2022/07/02 02:11:49;;;;;;;4.20;1.65;;;;;;;16.73;92.31;98767.91;4364903;32;20115;-71
2022/07/02 02:14:16;;;;;;;5.45;1.60;;;;;;;16.75;92.27;98778.31;4351387;32;20124;-71
2022/07/02 02:16:43;;;;;;;1.95;1.40;;;;;;;16.74;92.33;98803.13;4365231;32;20091;-71
2022/07/02 02:19:11;;;;;;;3.55;1.70;;;;;;;16.75;92.36;98816.16;4365044;32;20509;-71
2022/07/02 02:21:38;;;;;;;2.45;1.58;;;;;;;16.72;92.89;98802.47;4364815;32;20162;-70
2022/07/02 02:24:05;;;;;;;2.58;1.77;;;;;;;16.66;93.42;98788.94;4365227;32;20091;-71
2022/07/02 02:26:33;;;;;;;2.55;2.08;;;;;;;16.70;93.88;98755.03;4364955;32;20099;-71
2022/07/02 02:29:00;;;;;;;3.55;1.87;;;;;;;16.76;93.98;98749.03;4364834;32;20091;-71
2022/07/02 02:31:27;;;;;;;3.20;2.03;;;;;;;16.78;94.42;98756.81;4364791;32;20099;-71
2022/07/02 02:33:54;;;;;;;4.78;1.95;;;;;;;16.88;94.05;98783.03;4364727;32;20107;-71
2022/07/02 02:36:22;;;;;;;2.72;1.98;;;;;;;16.88;94.39;98786.53;4364651;32;20099;-71
2022/07/02 02:38:49;;;;;;;4.12;1.65;;;;;;;16.96;94.04;98786.44;4364886;32;20091;-71
2022/07/02 02:41:16;;;;;;;2.28;1.73;;;;;;;16.93;94.20;98812.47;4364992;32;20087;-71
2022/07/02 02:43:43;;;;;;;5.20;1.90;;;;;;;16.95;94.02;98816.56;4364846;32;20155;-71
2022/07/02 02:46:11;;;;;;;2.53;1.80;;;;;;;16.99;93.72;98827.63;4364803;32;20087;-71
2022/07/02 02:48:38;;;;;;;2.90;1.80;;;;;;;17.12;92.93;98819.91;4364715;32;20160;-71
2022/07/02 02:51:07;;;;;;;2.72;1.60;;;;;;;17.06;93.11;98825.91;4364788;32;20590;-71
2022/07/02 02:53:34;;;;;;;2.53;1.80;;;;;;;16.98;93.36;98808.25;4364637;32;20126;-71
2022/07/02 02:56:02;;;;;;;1.75;1.55;;;;;;;16.93;93.75;98817.75;4364015;32;20231;-71
2022/07/02 02:58:30;;;;;;;1.60;1.40;;;;;;;16.88;94.00;98826.22;4364642;32;20094;-71
2022/07/02 03:00:57;;;;;;;4.10;1.80;;;;;;;16.79;94.63;98825.41;4364607;32;20457;-71
2022/07/02 03:03:25;;;;;;;2.78;1.70;;;;;;;16.80;94.69;98850.84;4364692;32;20100;-71
2022/07/02 03:05:53;;;;;;;2.05;1.60;;;;;;;16.87;94.35;98827.22;4364637;32;20424;-71
2022/07/02 03:08:21;;;;;;;1.90;1.65;;;;;;;16.91;94.16;98839.09;4364680;32;20157;-71
2022/07/02 03:10:48;;;;;;;6.65;1.85;;;;;;;16.85;94.55;98843.22;4364903;32;20117;-71
2022/07/02 03:13:15;;;;;;;5.93;1.75;;;;;;;16.85;94.60;98859.09;4364316;32;20087;-71
2022/07/02 03:15:43;;;;;;;3.03;1.60;;;;;;;16.84;94.71;98857.44;4364706;32;20095;-71
2022/07/02 03:18:10;;;;;;;2.08;1.40;;;;;;;16.84;94.80;98848.69;4364520;32;20121;-71
2022/07/02 03:20:37;;;;;;;3.92;1.70;;;;;;;16.83;94.99;98857.63;4364519;32;20138;-71
2022/07/02 03:23:04;;;;;;;4.85;1.75;;;;;;;16.81;95.33;98846.41;4364588;32;20177;-70
2022/07/02 03:25:31;;;;;;;2.53;2.00;;;;;;;16.79;95.75;98849.22;4364577;32;20154;-70
2022/07/02 03:27:59;;;;;;;5.62;2.10;;;;;;;16.81;95.79;98857.81;4364590;32;20472;-70
2022/07/02 03:30:26;;;;;;;5.68;2.15;;;;;;;16.93;95.31;98870.69;4364461;32;20114;-70
2022/07/02 03:32:53;;;;;;;5.22;2.10;;;;;;;16.98;94.94;98878.91;4364179;32;20125;-70
2022/07/02 03:35:20;;;;;;;2.40;2.20;;;;;;;17.07;94.38;98887.63;4364420;32;20099;-71
2022/07/02 03:37:48;;;;;;;2.20;1.60;;;;;;;16.98;94.81;98885.00;4364430;32;20087;-70
2022/07/02 03:40:15;;;;;;;4.28;2.20;;;;;;;17.06;94.49;98891.25;4364305;32;20115;-71
2022/07/02 03:42:42;;;;;;;3.40;1.90;;;;;;;17.09;94.18;98897.00;4364410;32;20111;-71
2022/07/02 03:45:10;;;;;;;4.00;2.10;;;;;;;17.20;93.47;98899.25;4364358;32;20091;-71
2022/07/02 03:47:37;;;;;;;2.15;1.70;;;;;;;17.25;92.93;98887.31;4364457;32;20095;-71
2022/07/02 03:50:05;;;;;;;2.50;1.90;;;;;;;17.25;92.55;98903.22;4364381;32;20114;-71
2022/07/02 03:52:32;;;;;;;4.62;1.77;;;;;;;17.32;92.24;98907.62;4364430;32;20133;-71
2022/07/02 03:54:59;;;;;;;3.62;1.98;;;;;;;17.43;91.44;98926.75;4364334;32;20220;-71
2022/07/02 03:57:26;;;;;;;4.15;2.30;;;;;;;17.37;91.40;98921.13;4364465;32;20122;-71
2022/07/02 03:59:53;;;;;;;4.45;2.17;;;;;;;17.45;91.17;98924.72;4364361;32;20087;-71
2022/07/02 04:02:21;;;;;;;2.62;1.75;;;;;;;17.36;91.33;98914.19;4364337;32;20099;-71
2022/07/02 04:04:49;;;;;;;3.00;2.03;;;;;;;17.58;90.47;98927.59;4364115;32;20091;-72
2022/07/02 04:07:16;;;;;;;6.82;1.83;;;;;;;17.59;90.28;98936.38;4364190;32;20425;-71
2022/07/02 04:09:43;;;;;;;2.33;2.00;;;;;;;17.61;89.99;98937.84;4364179;32;20173;-71
2022/07/02 04:12:11;;;;;;;3.45;2.40;;;;;;;17.50;90.46;98947.03;4364327;32;20111;-71
2022/07/02 04:14:38;;;;;;;5.20;1.87;;;;;;;17.70;89.32;98951.84;4363974;32;20090;-71
2022/07/02 04:17:05;;;;;;;6.72;2.15;;;;;;;17.85;88.62;98965.97;4364154;32;20079;-71
2022/07/02 04:19:33;;;;;;;2.60;2.20;;;;;;;17.95;87.78;98943.72;4364059;32;20205;-71
2022/07/02 04:22:01;;;;;;;3.12;2.20;;;;;;;17.92;87.76;98982.00;4364133;32;20103;-71
2022/07/02 04:24:31;;;;;;;4.93;2.10;;;;;;;18.00;87.56;98983.75;4363997;32;20845;-71
2022/07/02 04:26:58;;;;;;;2.55;1.90;;;;;;;17.94;87.85;98990.59;4364041;32;20110;-71
2022/07/02 04:29:26;;;;;;;2.17;1.98;;;;;;;18.09;87.14;98982.66;4363978;32;20079;-70
2022/07/02 04:31:53;;;;;;;4.78;2.33;;;;;;;18.21;86.42;98983.88;4363970;32;20087;-71
2022/07/02 04:34:20;;;;;;;4.95;2.00;;;;;;;18.12;86.35;98990.25;4363930;32;20512;-71
2022/07/02 04:36:47;;;;;;;2.92;2.28;;;;;;;18.27;85.53;98998.22;4363920;32;20091;-71
2022/07/02 04:39:21;;;;;;;2.65;2.10;;;;;;;18.27;85.23;98990.28;4364003;32;20162;-71
2022/07/02 04:41:48;;;;;;;2.75;2.12;;;;;;;18.25;85.04;98990.47;4363798;32;20091;-71
2022/07/02 04:44:15;;;;;;;2.47;2.17;;;;;;;18.27;85.12;98984.97;4363986;32;20124;-71
2022/07/02 04:46:43;;;;;;;2.83;2.05;;;;;;;18.31;85.03;98985.44;4363807;32;20600;-71
2022/07/02 04:49:10;;;;;;;3.22;2.42;;;;;;;18.45;84.30;98984.63;4363644;32;20126;-71
2022/07/02 04:51:37;;;;;;;3.47;1.98;;;;;;;18.40;84.23;98984.34;4363628;32;20457;-71
2022/07/02 04:54:05;;;;;;;2.78;2.22;;;;;;;18.51;83.93;99001.66;4363682;32;20111;-71
2022/07/02 04:56:32;;;;;;;2.20;2.00;;;;;;;18.51;84.06;98994.50;4363751;32;20087;-71
2022/07/02 04:58:59;;;;;;;7.93;2.58;;;;;;;18.53;83.64;98971.28;4363638;32;20110;-71
2022/07/02 05:01:28;;;;;;;3.25;2.15;;;;;;;18.49;83.76;98998.38;4350176;32;20095;-71
2022/07/02 05:03:55;;;;;;;2.70;2.42;;;;;;;18.56;83.67;99001.91;4363577;32;20095;-71
2022/07/02 05:06:22;;;;;;;3.92;2.30;;;;;;;18.48;83.79;99026.69;4350092;32;20436;-71
2022/07/02 05:08:52;;;;;;;2.65;2.30;;;;;;;18.64;83.36;99017.75;4363561;32;20111;-71
2022/07/02 05:11:19;;;;;;;3.10;2.60;;;;;;;18.69;82.94;99022.50;4363423;32;20111;-71
2022/07/02 05:13:48;;;;;;;5.50;3.28;;;;;;;18.78;82.40;99029.38;4363102;32;20160;-70
2022/07/02 05:16:16;;;;;;;4.85;2.50;;;;;;;18.84;82.14;99031.28;4363476;32;20083;-71
2022/07/02 05:18:44;;;;;;;8.43;3.12;;;;;;;19.07;80.98;99033.03;4364082;32;20492;-70
2022/07/02 05:21:11;;;;;;;4.60;2.37;;;;;;;19.05;81.15;99043.84;4365304;32;20103;-70
2022/07/02 05:23:39;;;;;;;3.62;2.75;;;;;;;19.33;80.09;99036.00;4365244;32;20125;-70
2022/07/02 05:26:07;;;;;;;3.62;2.50;;;;;;;19.21;80.21;99040.13;4365329;32;20195;-71
2022/07/02 05:28:34;;;;;;;2.92;2.37;;;;;;;19.46;79.18;99051.25;4365237;32;20409;-70
2022/07/02 05:31:02;;;;;;;3.50;2.20;;;;;;;19.56;78.65;99053.63;4365258;32;20433;-70
2022/07/02 05:33:29;;;;;;;3.08;2.37;;;;;;;19.60;78.48;99057.53;4365138;32;20114;-71
2022/07/02 05:35:56;;;;;;;7.45;2.10;;;;;;;19.53;78.36;99072.59;4365190;32;20114;-70
2022/07/02 05:38:23;;;;;;;4.47;2.40;;;;;;;19.48;78.57;99078.47;4365152;32;20512;-71
2022/07/02 05:40:50;;;;;;;4.30;2.75;;;;;;;19.54;78.37;99087.53;4365240;32;20127;-71
2022/07/02 05:43:17;;;;;;;3.12;2.33;;;;;;;19.67;77.97;99103.63;4365226;32;20230;-71
2022/07/02 05:45:45;;;;;;;3.45;2.45;;;;;;;19.78;77.46;99123.59;4365068;32;20389;-71
2022/07/02 05:48:16;;;;;;;4.35;2.30;;;;;;;19.61;78.04;99122.97;4365144;32;20094;-71
2022/07/02 05:50:44;;;;;;;3.72;2.70;;;;;;;19.80;77.31;99132.22;4365167;32;20523;-71
2022/07/02 05:53:11;;;;;;;4.40;3.40;;;;;;;19.73;77.07;99143.75;4364952;32;20098;-71
2022/07/02 05:55:38;;;;;;;3.47;2.60;;;;;;;19.74;77.15;99156.03;4365087;32;20086;-71
2022/07/02 05:58:05;;;;;;;4.60;2.72;;;;;;;19.70;77.01;99155.59;4365134;32;20445;-71
2022/07/02 06:00:33;;;;;;;6.68;2.62;;;;;;;19.62;77.52;99159.19;4365017;32;20438;-71
2022/07/02 06:03:00;;;;;;;4.32;2.58;;;;;;;19.79;76.73;99149.19;4364977;32;20102;-71
2022/07/02 06:08:14;;;;;;;6.75;2.92;;;;;;;19.78;77.47;99142.22;4365124;32;20118;-71
2022/07/02 06:10:41;;;;;;;5.50;2.58;;;;;;;19.80;76.80;99148.19;4365184;32;20128;-71
2022/07/02 06:13:08;;;;;;;3.45;2.72;;;;;;;19.96;76.21;99136.47;4364748;32;20091;-70
2022/07/02 06:15:36;;;;;;;5.60;2.72;;;;;;;20.00;75.72;99132.44;4364939;32;20113;-71
2022/07/02 06:18:03;;;;;;;3.53;2.80;;;;;;;19.97;75.65;99118.66;4364921;32;20114;-71
2022/07/02 06:20:30;;;;;;;4.07;2.70;;;;;;;20.28;74.44;99117.53;4364903;32;20130;-71
2022/07/02 06:22:57;;;;;;;5.32;2.70;;;;;;;20.24;74.28;99109.09;4364990;32;20126;-71
2022/07/02 06:25:25;;;;;;;4.12;2.60;;;;;;;20.47;73.56;99122.22;4364984;32;20146;-71
2022/07/02 06:27:52;;;;;;;3.12;2.50;;;;;;;20.56;73.37;99145.00;4364735;32;20103;-71
2022/07/02 06:30:19;;;;;;;5.50;2.60;;;;;;;20.61;72.75;99149.75;4363945;32;20095;-71
2022/07/02 06:32:48;;;;;;;4.18;2.40;;;;;;;20.85;72.11;99151.19;4364829;32;20095;-71
2022/07/02 06:35:16;;;;;;;4.47;2.50;;;;;;;21.09;71.08;99165.88;4364822;32;20236;-70
2022/07/02 06:37:43;;;;;;;3.95;2.60;;;;;;;21.43;70.02;99158.06;4351132;32;20402;-70
2022/07/02 06:40:11;;;;;;;2.80;2.50;;;;;;;21.49;69.41;99169.78;4364779;32;20087;-71
2022/07/02 06:42:38;;;;;;;2.58;2.20;;;;;;;21.49;69.32;99157.28;4364950;32;20509;-71
2022/07/02 06:45:05;;;;;;;6.25;2.72;;;;;;;21.58;68.36;99158.78;4364707;32;20385;-71
2022/07/02 06:47:33;;;;;;;3.97;2.65;;;;;;;21.52;69.43;99153.44;4364852;32;20079;-71
2022/07/02 06:50:00;;;;;;;3.05;2.35;;;;;;;21.36;69.16;99151.88;4364695;32;20099;-71
2022/07/02 06:52:29;;;;;;;3.35;2.40;;;;;;;21.75;68.39;99158.44;4364596;32;20146;-71
2022/07/02 06:54:57;;;;;;;5.10;2.47;;;;;;;21.77;67.66;99162.56;4364755;32;20104;-71
2022/07/02 06:57:25;;;;;;;3.47;2.50;;;;;;;21.90;67.15;99163.59;4364640;32;20079;-71
2022/07/02 06:59:53;;;;;;;2.83;2.25;;;;;;;21.69;67.04;99170.72;4364645;32;20616;-71
2022/07/02 07:02:21;;;;;;;6.50;2.47;;;;;;;21.76;67.05;99157.41;4364773;32;20170;-71
2022/07/02 07:04:49;;;;;;;3.30;3.00;;;;;;;22.09;66.44;99167.34;4364581;32;20162;-71
2022/07/02 07:07:17;;;;;;;4.37;2.55;;;;;;;21.88;66.51;99157.66;4364962;32;20103;-71
2022/07/02 07:09:44;;;;;;;4.07;2.03;;;;;;;22.20;65.51;99149.94;4364534;32;20545;-70
2022/07/02 07:12:11;;;;;;;3.37;2.17;;;;;;;21.91;66.11;99155.41;4364403;32;20091;-71
2022/07/02 07:14:39;;;;;;;5.82;2.33;;;;;;;21.93;66.42;99168.53;4364368;32;20083;-71
2022/07/02 07:17:06;;;;;;;5.72;2.55;;;;;;;21.68;66.65;99169.09;4364542;32;20408;-71
2022/07/02 07:19:33;;;;;;;6.07;2.75;;;;;;;21.84;66.82;99151.88;4364922;32;20099;-71
2022/07/02 07:22:01;;;;;;;3.65;2.47;;;;;;;22.05;65.95;99169.59;4364544;32;20121;-71
2022/07/02 07:24:29;;;;;;;2.87;2.50;;;;;;;22.20;65.45;99180.09;4364563;32;20091;-71
2022/07/02 07:26:59;;;;;;;4.75;2.90;;;;;;;22.10;64.76;99172.47;4364489;32;20095;-71
2022/07/02 07:29:27;;;;;;;6.50;2.28;;;;;;;22.13;65.26;99180.09;4364513;32;20113;-71
2022/07/02 07:31:54;;;;;;;3.05;2.28;;;;;;;22.04;65.59;99178.63;4364485;32;20114;-70
2022/07/02 07:34:21;;;;;;;3.25;2.62;;;;;;;22.28;65.03;99173.75;4364544;32;20476;-71
2022/07/02 07:36:51;;;;;;;4.28;2.90;;;;;;;22.42;65.00;99178.13;4364368;32;20151;-71
2022/07/02 07:39:18;;;;;;;5.50;2.60;;;;;;;22.60;63.23;99187.34;4364728;32;20110;-71
2022/07/02 07:41:45;;;;;;;3.60;2.50;;;;;;;22.72;63.42;99188.38;4364328;32;20103;-71
2022/07/02 07:44:13;;;;;;;2.65;2.22;;;;;;;22.86;63.10;99189.19;4364637;32;20114;-70
2022/07/02 07:46:40;;;;;;;2.72;2.33;;;;;;;22.83;62.59;99184.25;4364368;32;20087;-70
2022/07/02 07:49:07;;;;;;;4.43;2.62;;;;;;;22.73;63.07;99190.03;4364340;32;20163;-71
2022/07/02 07:51:35;;;;;;;3.50;2.53;;;;;;;22.74;62.95;99188.16;4364371;32;20158;-71
2022/07/02 07:54:02;;;;;;;3.33;2.85;;;;;;;22.89;62.01;99187.97;4364186;32;20104;-71
2022/07/02 07:56:29;;;;;;;5.60;2.55;;;;;;;22.59;62.79;99186.53;4364316;32;20087;-71
2022/07/02 07:58:56;;;;;;;4.53;2.40;;;;;;;22.71;62.58;99197.44;4364253;32;20114;-71
2022/07/02 08:01:26;;;;;;;4.97;2.70;;;;;;;22.79;62.20;99197.22;4364377;32;20153;-71
2022/07/02 08:03:53;;;;;;;4.72;2.83;;;;;;;22.74;62.06;99196.19;4364380;32;20156;-71
2022/07/02 08:06:21;;;;;;;5.50;2.60;;;;;;;23.01;61.63;99200.50;4364260;32;20095;-71
2022/07/02 08:08:48;;;;;;;4.87;2.78;;;;;;;23.16;61.11;99197.59;4364412;32;20433;-71
2022/07/02 08:11:15;;;;;;;3.55;2.75;;;;;;;22.76;61.99;99202.97;4364167;32;20139;-71
2022/07/02 08:13:42;;;;;;;7.97;2.58;;;;;;;22.93;61.80;99207.91;4363810;32;20109;-71
2022/07/02 08:16:09;;;;;;;5.32;2.72;;;;;;;23.29;61.19;99195.97;4364230;32;20117;-71
2022/07/02 08:18:37;;;;;;;4.22;2.40;;;;;;;23.16;60.59;99197.59;4364067;32;20118;-71
2022/07/02 08:21:04;;;;;;;3.42;2.70;;;;;;;23.24;60.34;99191.25;4364172;32;20099;-71
2022/07/02 08:23:31;;;;;;;6.53;2.83;;;;;;;23.38;60.19;99192.03;4364345;32;20090;-71
2022/07/02 08:25:59;;;;;;;6.95;2.95;;;;;;;23.17;60.56;99199.25;4364184;32;20149;-71
2022/07/02 08:28:26;;;;;;;3.33;2.83;;;;;;;23.22;60.35;99198.63;4364102;32;20091;-71
2022/07/02 08:30:53;;;;;;;3.17;2.55;;;;;;;23.12;60.30;99215.09;4364069;32;20122;-71
2022/07/02 08:33:20;;;;;;;5.60;3.00;;;;;;;23.49;59.49;99201.25;4363935;32;20260;-71
2022/07/02 08:35:48;;;;;;;2.80;2.45;;;;;;;23.60;59.22;99210.47;4364255;32;20465;-71
2022/07/02 08:38:15;;;;;;;4.30;2.60;;;;;;;23.64;58.82;99198.31;4363831;32;20091;-70
2022/07/02 08:40:43;;;;;;;3.12;2.83;;;;;;;23.97;57.79;99205.38;4350617;32;20169;-71
2022/07/02 08:43:12;;;;;;;3.92;2.50;;;;;;;23.99;57.87;99200.66;4363878;32;20111;-71
2022/07/02 08:45:43;;;;;;;5.35;2.90;;;;;;;23.95;57.53;99200.25;4363867;32;20131;-71
2022/07/02 08:48:12;;;;;;;3.70;3.05;;;;;;;23.73;57.97;99213.91;4363846;32;20095;-71
2022/07/02 08:50:40;;;;;;;4.85;2.60;;;;;;;23.89;58.46;99201.94;4363712;32;20458;-71
2022/07/02 08:53:08;;;;;;;5.82;2.92;;;;;;;24.10;57.32;99202.63;4362733;32;20086;-71
2022/07/02 08:55:37;;;;;;;4.60;2.87;;;;;;;24.09;57.40;99196.47;4363635;32;20140;-71
2022/07/02 08:58:05;;;;;;;3.80;3.00;;;;;;;24.11;57.46;99204.28;4363647;32;20095;-71
2022/07/02 09:00:32;;;;;;;4.87;2.85;;;;;;;24.02;57.34;99209.06;4363699;32;20153;-71
2022/07/02 09:03:00;;;;;;;6.60;3.40;;;;;;;24.14;56.79;99209.22;4350479;32;20086;-71
2022/07/02 09:05:30;;;;;;;4.28;2.65;;;;;;;24.18;56.92;99199.72;4350236;32;20139;-71
2022/07/02 09:07:57;;;;;;;3.70;3.17;;;;;;;24.26;56.33;99204.81;4363461;32;20090;-71
2022/07/02 09:10:26;;;;;;;4.25;3.40;;;;;;;24.54;56.20;99202.75;4363762;32;20149;-71
2022/07/02 09:12:54;;;;;;;4.05;3.22;;;;;;;24.72;55.74;99199.34;4363239;32;20144;-71
2022/07/02 09:15:22;;;;;;;6.05;3.17;;;;;;;25.00;54.82;99203.44;4363501;32;20540;-71
2022/07/02 09:17:51;;;;;;;8.38;3.10;;;;;;;24.89;54.56;99194.25;4363281;32;20123;-71
2022/07/02 09:20:19;;;;;;;4.22;2.75;;;;;;;24.86;54.63;99200.06;4363366;32;20091;-71
2022/07/02 09:22:51;;;;;;;4.18;2.80;;;;;;;25.00;54.41;99190.03;4363376;32;20095;-71
2022/07/02 09:25:24;;;;;;;4.95;3.03;;;;;;;25.27;54.26;99193.25;4363355;32;20414;-71
2022/07/02 09:28:03;;;;;;;6.43;2.95;;;;;;;25.11;53.79;99203.53;4363424;32;20110;-71
2022/07/02 09:30:33;;;;;;;3.03;2.67;;;;;;;25.05;54.47;99203.63;4363324;32;20601;-70
2022/07/02 09:35:46;;;;;;;7.72;3.12;;;;;;;24.90;54.51;99195.91;4363100;32;20079;-71
2022/07/02 09:38:13;;;;;;;5.35;2.87;;;;;;;25.40;53.26;99195.03;4363194;32;20096;-71
2022/07/02 09:40:59;;;;;;;3.83;2.87;;;;;;;25.21;52.99;99191.47;4363101;32;20126;-71
2022/07/02 09:43:31;;;;;;;3.60;2.90;;;;;;;25.33;52.92;99203.97;4363141;32;20084;-71
2022/07/02 09:46:00;;;;;;;4.60;2.65;;;;;;;25.39;52.93;99196.06;4363089;32;20488;-71
2022/07/02 09:48:28;;;;;;;7.60;2.42;;;;;;;25.55;52.48;99190.09;4349674;32;20106;-71
2022/07/02 09:51:02;;;;;;;3.80;2.85;;;;;;;25.24;52.31;99189.19;4362950;32;20564;-71
2022/07/02 09:53:29;;;;;;;4.53;2.95;;;;;;;25.38;53.03;99199.81;4362830;32;20106;-71
2022/07/02 09:55:56;;;;;;;14.57;2.90;;;;;;;25.56;52.25;99199.78;4349531;32;20109;-71
2022/07/02 09:58:25;;;;;;;4.85;2.90;;;;;;;25.71;51.77;99203.94;4362885;32;20091;-71
2022/07/02 10:00:54;;;;;;;5.53;2.92;;;;;;;25.92;51.45;99208.00;4362846;32;20480;-71
2022/07/02 10:03:22;;;;;;;4.95;3.60;;;;;;;25.57;51.69;99211.34;4362835;32;20114;-71
2022/07/02 10:05:52;;;;;;;6.18;3.08;;;;;;;25.64;52.06;99218.25;4364539;32;20108;-71
2022/07/02 10:08:19;;;;;;;3.40;2.75;;;;;;;25.82;52.45;99206.69;4365235;32;20142;-71
2022/07/02 10:10:48;;;;;;;8.70;3.08;;;;;;;25.82;51.76;99200.50;4365027;32;20094;-71
2022/07/02 10:13:17;;;;;;;3.62;2.83;;;;;;;25.98;50.94;99197.22;4364743;32;20141;-71
2022/07/02 10:15:53;;;;;;;4.85;2.78;;;;;;;26.22;50.72;99194.63;4364966;32;20150;-71
2022/07/02 10:18:23;;;;;;;5.55;3.05;;;;;;;26.34;49.78;99190.12;4365131;32;20088;-71
2022/07/02 10:20:52;;;;;;;3.28;2.60;;;;;;;26.25;50.28;99190.66;4365014;32;20087;-71
2022/07/02 10:23:20;;;;;;;4.15;2.87;;;;;;;26.39;50.15;99190.22;4364929;32;20079;-71
2022/07/02 10:25:48;;;;;;;7.57;2.83;;;;;;;26.67;49.25;99193.34;4351509;32;20134;-71
2022/07/02 10:28:15;;;;;;;4.15;2.70;;;;;;;26.85;48.60;99195.13;4364788;32;20434;-71
2022/07/02 10:30:43;;;;;;;6.87;2.83;;;;;;;26.58;48.72;99186.66;4364939;32;20488;-71
2022/07/02 10:33:10;;;;;;;4.03;2.75;;;;;;;26.58;48.89;99182.06;4365031;32;20082;-71
2022/07/02 10:35:38;;;;;;;5.60;3.00;;;;;;;26.66;48.90;99187.16;4364746;32;20091;-71
2022/07/02 10:38:06;;;;;;;8.75;2.85;;;;;;;26.88;48.27;99184.69;4364876;32;20125;-71
2022/07/02 10:40:45;;;;;;;3.58;2.87;;;;;;;26.70;48.71;99187.50;4364816;32;20123;-71
2022/07/02 10:43:16;;;;;;;5.60;2.83;;;;;;;26.80;48.50;99192.28;4364918;32;20460;-71
2022/07/02 10:45:44;;;;;;;6.28;2.92;;;;;;;27.01;47.83;99180.97;4364679;32;20097;-71
2022/07/02 10:48:13;;;;;;;3.60;2.58;;;;;;;27.05;47.60;99184.81;4364777;32;20127;-71
2022/07/02 10:50:45;;;;;;;4.25;2.85;;;;;;;27.01;47.63;99191.72;4364668;32;20167;-71
2022/07/02 10:53:20;;;;;;;3.10;2.80;;;;;;;27.11;47.33;99193.00;4364722;32;20079;-71
2022/07/02 10:59:21;;;;;;;4.28;2.53;;;;;;;27.12;46.85;99194.63;4364663;32;20142;-71
2022/07/02 11:02:00;;;;;;;3.28;2.55;;;;;;;26.92;47.13;99179.69;4364425;32;20484;-71
2022/07/02 11:04:28;;;;;;;3.33;2.70;;;;;;;27.15;46.99;99186.91;4364531;32;20098;-71
2022/07/02 11:07:10;;;;;;;3.03;2.35;;;;;;;27.21;46.55;99183.28;4364629;32;20150;-71
2022/07/02 11:09:53;;;;;;;4.70;2.75;;;;;;;27.29;46.46;99186.69;4364770;32;20162;-71
2022/07/02 11:12:43;;;;;;;3.35;2.75;;;;;;;27.96;45.46;99195.09;4364553;32;20095;-71
2022/07/02 11:15:18;;;;;;;3.47;2.50;;;;;;;28.17;44.50;99176.59;4364243;32;20079;-71
2022/07/02 11:17:48;;;;;;;5.03;2.50;;;;;;;27.76;45.46;99179.31;4363947;32;20086;-71
2022/07/02 11:20:22;;;;;;;3.12;2.72;;;;;;;28.05;44.59;99175.84;4351199;32;20107;-71
2022/07/02 11:22:50;;;;;;;2.85;2.50;;;;;;;27.88;44.94;99183.84;4364331;32;20145;-71
2022/07/02 11:25:17;;;;;;;3.67;2.55;;;;;;;27.77;45.27;99186.34;4358384;32;20131;-71
2022/07/02 11:27:54;;;;;;;5.32;2.50;;;;;;;28.02;44.72;99166.34;4364503;32;20086;-71
2022/07/02 11:30:28;;;;;;;3.58;2.40;;;;;;;28.15;45.04;99170.63;4364513;32;20158;-71
2022/07/02 11:32:56;;;;;;;4.45;2.45;;;;;;;28.22;44.39;99162.37;4364597;32;20079;-71
2022/07/02 11:35:23;;;;;;;4.07;2.20;;;;;;;28.41;43.67;99171.88;4364313;32;20168;-71
2022/07/02 11:38:00;;;;;;;5.32;2.10;;;;;;;28.18;43.87;99159.38;4364280;32;20422;-71
2022/07/02 11:40:27;;;;;;;5.12;2.40;;;;;;;28.18;44.19;99161.22;4364486;32;20111;-71
2022/07/02 11:42:54;;;;;;;2.60;2.25;;;;;;;28.49;42.95;99163.41;4364497;32;20090;-71
2022/07/02 11:45:22;;;;;;;4.82;2.67;;;;;;;28.13;43.71;99157.41;4364341;32;20488;-71
2022/07/02 11:47:50;;;;;;;3.03;2.20;;;;;;;28.14;43.74;99169.78;4364567;32;20082;-71
2022/07/02 11:50:28;;;;;;;5.37;2.40;;;;;;;28.26;43.07;99161.66;4358572;32;20087;-71